createdAt,value
2023-05-02T05:23:28.173Z,41.3875
2023-05-02T05:24:30.114Z,33.3277
2023-05-02T05:25:32.048Z,31.9654
2023-05-02T05:26:33.950Z,39.6323
2023-05-02T05:27:35.907Z,47.4062
2023-05-02T05:28:37.781Z,53.8500
2023-05-02T05:29:39.716Z,59.4115
2023-05-02T05:30:41.624Z,58.7323
2023-05-02T05:31:43.612Z,54.4238
2023-05-02T05:32:45.471Z,59.4185
2023-05-02T05:33:47.386Z,64.2015
2023-05-02T05:34:49.297Z,68.1438
2023-05-02T05:35:51.204Z,70.9869
2023-05-02T05:36:53.151Z,60.9654
2023-05-02T05:37:55.041Z,48.5162
2023-05-02T05:38:56.969Z,52.5438
2023-05-02T05:39:59.136Z,58.7477
2023-05-02T05:41:00.794Z,63.8669
2023-05-02T05:42:02.709Z,67.8877
2023-05-02T05:43:04.633Z,65.3831
2023-05-02T05:44:06.537Z,51.7069
2023-05-02T05:45:08.452Z,53.5331
2023-05-02T05:46:10.355Z,59.5515
2023-05-02T05:47:12.343Z,64.4462
2023-05-02T05:48:14.280Z,68.2000
2023-05-02T05:49:16.129Z,67.4077
2023-05-02T05:50:18.023Z,52.2485
2023-05-02T05:51:19.928Z,49.8092
2023-05-02T05:52:21.846Z,56.1285
2023-05-02T05:53:23.790Z,61.6977
2023-05-02T05:54:25.684Z,66.1161
2023-05-02T05:55:27.622Z,68.4800
2023-05-02T05:56:29.519Z,56.4392
2023-05-02T05:57:31.427Z,46.9377
2023-05-02T05:58:33.344Z,52.2554
2023-05-02T05:59:35.270Z,58.4069
2023-05-02T06:00:37.200Z,63.4277
2023-05-02T06:01:39.121Z,67.2869
2023-05-02T06:02:41.066Z,62.7223
2023-05-02T06:03:43.068Z,47.2092
2023-05-02T06:04:44.872Z,46.2592
2023-05-02T06:05:46.759Z,53.1400
2023-05-02T06:06:48.736Z,59.0677
2023-05-02T06:07:50.600Z,63.8077
2023-05-02T06:08:52.533Z,66.7154
2023-05-02T06:09:54.471Z,55.5792
2023-05-02T06:10:56.363Z,44.0277
2023-05-02T06:11:58.267Z,48.0200
2023-05-02T06:13:00.196Z,54.6823
2023-05-02T06:14:02.126Z,60.2738
2023-05-02T06:15:04.016Z,64.6400
2023-05-02T06:16:05.996Z,64.1985
2023-05-02T06:17:07.850Z,49.5362
2023-05-02T06:18:09.837Z,45.7900
2023-05-02T06:19:11.695Z,52.3223
2023-05-02T06:20:13.631Z,58.2908
2023-05-02T06:21:15.519Z,63.0946
2023-05-02T06:22:17.424Z,66.5061
2023-05-02T06:23:19.344Z,57.8438
2023-05-02T06:24:21.267Z,48.1462
2023-05-02T06:25:23.155Z,53.1062
2023-05-02T06:26:25.105Z,59.1431
2023-05-02T06:27:26.991Z,63.9315
2023-05-02T06:28:28.906Z,67.4285
2023-05-02T06:29:30.852Z,62.9192
2023-05-02T06:30:32.727Z,52.8815
2023-05-02T06:31:34.671Z,56.1192
2023-05-02T06:32:36.586Z,60.9615
2023-05-02T06:33:38.479Z,65.3015
2023-05-02T06:34:40.396Z,68.3354
2023-05-02T06:35:42.318Z,63.3300
2023-05-02T06:36:44.217Z,47.4408
2023-05-02T06:37:46.138Z,45.2900
2023-05-02T06:38:48.065Z,52.1677
2023-05-02T06:39:49.952Z,58.2438
2023-05-02T06:40:51.878Z,63.1923
2023-05-02T06:41:53.784Z,66.6254
2023-05-02T06:42:55.707Z,56.7762
2023-05-02T06:43:57.642Z,44.2092
2023-05-02T06:44:59.536Z,47.4038
2023-05-02T06:46:01.458Z,54.1708
2023-05-02T06:47:03.444Z,59.8400
2023-05-02T06:48:05.338Z,64.3092
2023-05-02T06:49:07.192Z,64.8762
2023-05-02T06:50:09.116Z,51.4200
2023-05-02T06:51:11.059Z,49.9208
2023-05-02T06:52:12.932Z,56.1177
2023-05-02T06:53:14.854Z,61.5077
2023-05-02T06:54:16.791Z,65.5862
2023-05-02T06:55:18.723Z,67.4377
2023-05-02T06:56:20.631Z,55.1108
2023-05-02T06:57:22.507Z,47.2085
2023-05-02T06:58:24.439Z,52.8654
2023-05-02T06:59:26.348Z,58.8692
2023-05-02T07:00:28.246Z,63.7038
2023-05-02T07:01:30.271Z,67.2931
2023-05-02T07:02:32.172Z,61.3500
2023-05-02T07:03:34.008Z,49.1408
2023-05-02T07:04:36.012Z,52.8131
2023-05-02T07:05:37.825Z,58.8862
2023-05-02T07:06:39.777Z,63.7800
2023-05-02T07:07:41.638Z,67.4131
2023-05-02T07:08:43.558Z,65.0462
2023-05-02T07:09:45.467Z,51.3608
2023-05-02T07:10:47.404Z,52.8085
2023-05-02T07:11:49.292Z,58.9431
2023-05-02T07:12:51.214Z,63.8977
2023-05-02T07:13:53.132Z,67.5762
2023-05-02T07:14:55.028Z,67.1554
2023-05-02T07:15:56.950Z,52.3708
2023-05-02T07:16:58.989Z,48.7900
2023-05-02T07:18:00.879Z,55.1469
2023-05-02T07:19:02.685Z,60.8369
2023-05-02T07:20:04.745Z,65.3354
2023-05-02T07:21:06.519Z,64.2692
2023-05-02T07:22:08.434Z,47.9485
2023-05-02T07:23:10.378Z,46.3523
2023-05-02T07:24:12.268Z,45.7454
2023-05-02T07:25:14.174Z,45.6300
2023-05-02T07:26:16.089Z,45.3485
2023-05-02T07:27:18.018Z,45.2477
2023-05-02T07:28:19.942Z,45.1915
2023-05-02T07:29:21.846Z,45.1125
2023-05-02T07:30:23.769Z,45.0931
2023-05-02T07:31:25.700Z,45.0575
2023-05-02T07:32:27.826Z,44.8623
2023-05-02T07:33:29.484Z,44.8292
2023-05-02T07:34:31.399Z,44.6185
2023-05-02T07:35:33.313Z,44.8962
2023-05-02T07:36:35.233Z,44.8923
2023-05-02T07:37:37.189Z,44.8046
2023-05-02T07:38:39.035Z,44.8392
2023-05-02T07:39:40.952Z,44.8146
2023-05-02T07:40:42.855Z,44.6254
2023-05-02T07:41:44.772Z,44.8546
2023-05-02T07:42:46.783Z,44.8400
2023-05-02T07:43:48.608Z,44.7554
2023-05-02T07:44:50.520Z,44.6977
2023-05-02T07:45:52.447Z,44.6638
2023-05-02T07:46:54.345Z,44.6508
2023-05-02T07:47:56.305Z,44.5838
2023-05-02T07:48:58.179Z,44.6646
2023-05-02T07:50:00.672Z,44.5762
2023-05-02T07:51:02.000Z,44.6308
2023-05-02T07:52:03.904Z,44.5992
2023-05-02T07:53:05.806Z,44.6638
2023-05-02T07:54:07.719Z,44.5708
2023-05-02T07:55:09.673Z,44.6015
2023-05-02T07:56:11.562Z,44.6069
2023-05-02T07:57:13.470Z,44.5577
2023-05-02T07:58:15.405Z,44.5977
2023-05-02T07:59:17.292Z,44.5285
2023-05-02T08:00:19.188Z,44.5846
2023-05-02T08:01:21.121Z,44.4285
2023-05-02T08:02:24.699Z,44.3531
2023-05-02T08:03:25.035Z,44.4462
2023-05-02T08:04:26.945Z,44.4377
2023-05-02T08:05:28.761Z,44.4708
2023-05-02T08:06:30.716Z,44.5108
2023-05-02T08:07:32.603Z,44.4585
2023-05-02T08:08:34.496Z,44.3931
2023-05-02T08:09:36.404Z,44.3246
2023-05-02T08:10:38.317Z,44.3192
2023-05-02T08:11:40.241Z,44.3515
2023-05-02T08:12:42.165Z,44.3669
2023-05-02T08:13:44.053Z,44.2846
2023-05-02T08:14:45.974Z,42.3900
2023-05-02T08:15:47.921Z,34.2285
2023-05-02T08:16:49.867Z,30.3500
2023-05-02T08:17:51.756Z,32.4854
2023-05-02T08:18:53.640Z,40.6023
2023-05-02T08:19:55.520Z,48.2677
2023-05-02T08:20:57.436Z,54.7377
2023-05-02T08:21:59.365Z,60.2931
2023-05-02T08:23:01.345Z,58.6723
2023-05-02T08:24:03.204Z,58.8469
2023-05-02T08:25:05.153Z,64.0546
2023-05-02T08:26:07.016Z,68.5308
2023-05-02T08:27:08.924Z,72.1508
2023-05-02T08:28:10.848Z,73.2500
2023-05-02T08:29:12.743Z,58.7523
2023-05-02T08:30:14.666Z,46.2362
2023-05-02T08:31:16.628Z,49.2023
2023-05-02T08:32:18.559Z,55.9354
2023-05-02T08:33:20.448Z,61.8423
2023-05-02T08:34:22.339Z,66.8008
2023-05-02T08:35:24.253Z,68.3777
2023-05-02T08:36:26.159Z,54.8777
2023-05-02T08:37:28.098Z,50.5385
2023-05-02T08:38:29.999Z,56.4208
2023-05-02T08:39:31.905Z,62.2854
2023-05-02T08:40:41.494Z,67.2269
2023-05-02T08:41:35.715Z,70.9967
2023-05-02T08:42:37.630Z,61.7331
2023-05-02T08:43:39.544Z,48.8100
2023-05-02T08:44:41.481Z,51.7115
2023-05-02T08:45:43.358Z,58.0369
2023-05-02T08:46:45.308Z,63.6300
2023-05-02T08:47:47.225Z,68.3069
2023-05-02T08:48:49.111Z,68.5838
2023-05-02T08:49:51.009Z,53.6600
2023-05-02T08:50:52.961Z,48.5831
2023-05-02T08:51:54.829Z,54.4300
2023-05-02T08:52:56.744Z,60.6031
2023-05-02T08:53:58.673Z,65.8162
2023-05-02T08:55:00.852Z,69.8877
2023-05-02T08:56:02.489Z,62.2238
2023-05-02T08:57:04.440Z,51.9446
2023-05-02T08:58:06.297Z,56.3315
2023-05-02T08:59:08.215Z,62.1931
2023-05-02T09:00:10.130Z,67.1323
2023-05-02T09:01:12.060Z,71.0792
2023-05-02T09:02:13.944Z,66.5023
2023-05-02T09:03:15.976Z,51.0354
2023-05-02T09:04:17.832Z,50.9946
2023-05-02T09:05:19.693Z,57.3377
2023-05-02T09:06:21.618Z,63.0446
2023-05-02T09:07:23.497Z,67.8277
2023-05-02T09:08:25.467Z,70.0162
2023-05-02T09:09:27.338Z,56.7892
2023-05-02T09:10:29.869Z,49.8238
2023-05-02T09:11:31.182Z,55.3808
2023-05-02T09:12:33.075Z,61.3608
2023-05-02T09:13:34.992Z,66.3769
2023-05-02T09:14:36.886Z,70.3654
2023-05-02T09:15:38.801Z,63.1354
2023-05-02T09:16:40.769Z,49.0246
2023-05-02T09:17:42.656Z,51.1046
2023-05-02T09:18:44.543Z,57.5800
2023-05-02T09:19:46.566Z,63.2000
2023-05-02T09:20:48.372Z,67.8931
2023-05-02T09:21:50.270Z,68.6654
2023-05-02T09:22:52.198Z,54.0954
2023-05-02T09:23:54.084Z,49.4100
2023-05-02T09:24:56.012Z,55.4154
2023-05-02T09:25:57.992Z,61.3746
2023-05-02T09:26:59.876Z,66.3808
2023-05-02T09:28:01.833Z,70.1046
2023-05-02T09:29:03.700Z,60.8892
2023-05-02T09:30:05.614Z,48.5692
2023-05-02T09:31:07.582Z,52.2277
2023-05-02T09:32:09.513Z,58.5531
2023-05-02T09:33:11.446Z,63.9477
2023-05-02T09:34:13.277Z,68.4554
2023-05-02T09:35:15.190Z,66.9885
2023-05-02T09:36:17.094Z,49.1438
2023-05-02T09:37:19.027Z,45.6246
2023-05-02T09:38:21.020Z,52.3192
2023-05-02T09:39:25.512Z,58.7462
2023-05-02T09:40:24.748Z,64.2185
2023-05-02T09:41:26.660Z,68.4408
2023-05-02T09:42:28.568Z,60.7523
2023-05-02T09:43:30.474Z,50.2008
2023-05-02T09:44:32.925Z,54.4885
2023-05-02T09:45:34.337Z,60.4854
2023-05-02T09:46:36.227Z,65.5992
2023-05-02T09:47:38.234Z,69.7638
2023-05-02T09:48:40.026Z,65.9969
2023-05-02T09:49:41.957Z,49.6623
2023-05-02T09:50:43.854Z,46.1392
2023-05-02T09:51:45.791Z,52.7577
2023-05-02T09:52:47.676Z,59.0431
2023-05-02T09:53:49.592Z,64.3623
2023-05-02T09:54:51.517Z,68.5046
2023-05-02T09:55:53.429Z,60.0708
2023-05-02T09:56:55.362Z,49.2100
2023-05-02T09:57:57.255Z,53.5146
2023-05-02T09:58:59.172Z,59.6631
2023-05-02T10:00:01.083Z,64.8969
2023-05-02T10:01:03.056Z,69.1669
2023-05-02T10:02:04.979Z,66.0877
2023-05-02T10:03:06.935Z,50.2454
2023-05-02T10:04:08.788Z,48.4877
2023-05-02T10:05:10.664Z,54.9215
2023-05-02T10:06:12.578Z,60.8562
2023-05-02T10:07:14.479Z,65.8454
2023-05-02T10:08:16.397Z,69.0031
2023-05-02T10:09:21.415Z,57.6354
2023-05-02T10:10:20.225Z,50.1538
2023-05-02T10:11:22.117Z,55.5423
2023-05-02T10:12:24.034Z,61.4077
2023-05-02T10:13:25.942Z,66.3292
2023-05-02T10:14:29.544Z,70.2262
2023-05-02T10:15:29.797Z,62.7769
2023-05-02T10:16:31.772Z,50.9900
2023-05-02T10:17:33.645Z,54.8585
2023-05-02T10:18:35.512Z,60.9777
2023-05-02T10:19:37.436Z,66.0754
2023-05-02T10:20:39.337Z,70.1492
2023-05-02T10:21:41.247Z,66.8892
2023-05-02T10:22:43.207Z,54.1708
2023-05-02T10:23:45.090Z,56.9200
2023-05-02T10:24:47.007Z,62.6077
2023-05-02T10:25:48.911Z,67.3985
2023-05-02T10:26:50.822Z,71.1969
2023-05-02T10:27:52.751Z,68.4908
2023-05-02T10:28:54.682Z,52.2000
2023-05-02T10:29:56.581Z,50.0623
2023-05-02T10:30:58.503Z,56.3308
2023-05-02T10:32:00.487Z,62.0569
2023-05-02T10:33:02.339Z,66.8654
2023-05-02T10:34:04.238Z,69.7608
2023-05-02T10:35:06.191Z,57.7508
2023-05-02T10:36:08.052Z,47.1769
2023-05-02T10:37:09.975Z,51.7685
2023-05-02T10:38:11.879Z,58.1492
2023-05-02T10:39:13.785Z,63.5977
2023-05-02T10:40:15.754Z,68.1046
2023-05-02T10:41:17.647Z,65.5115
2023-05-02T10:42:19.536Z,52.2746
2023-05-02T10:43:21.452Z,54.4315
2023-05-02T10:44:23.362Z,60.4523
2023-05-02T10:45:25.276Z,65.4792
2023-05-02T10:46:27.291Z,69.5962
2023-05-02T10:47:29.156Z,68.7054
2023-05-02T10:48:31.036Z,52.5738
2023-05-02T10:49:32.941Z,46.2623
2023-05-02T10:50:34.888Z,52.3169
2023-05-02T10:51:36.765Z,58.6277
2023-05-02T10:52:38.766Z,63.9369
2023-05-02T10:53:40.588Z,68.2738
2023-05-02T10:54:42.505Z,62.0223
2023-05-02T10:55:44.451Z,49.0069
2023-05-02T10:56:46.337Z,51.9515
2023-05-02T10:57:48.254Z,58.2254
2023-05-02T10:58:50.172Z,63.6254
2023-05-02T10:59:52.085Z,68.0854
2023-05-02T11:00:54.033Z,67.3777
2023-05-02T11:01:55.972Z,52.3538
2023-05-02T11:02:58.067Z,50.2223
2023-05-02T11:03:59.785Z,56.3985
2023-05-02T11:05:02.070Z,62.0915
2023-05-02T11:06:03.613Z,66.8377
2023-05-02T11:07:05.518Z,69.6223
2023-05-02T11:08:07.446Z,57.4877
2023-05-02T11:09:09.334Z,49.7600
2023-05-02T11:10:11.245Z,55.1546
2023-05-02T11:11:13.164Z,60.9815
2023-05-02T11:12:15.052Z,65.9100
2023-05-02T11:13:16.975Z,69.8192
2023-05-02T11:14:20.241Z,62.6323
2023-05-02T11:15:20.830Z,48.5277
2023-05-02T11:16:22.749Z,50.7562
2023-05-02T11:17:24.654Z,57.2069
2023-05-02T11:18:26.530Z,62.6938
2023-05-02T11:19:29.221Z,67.2815
2023-05-02T11:20:30.359Z,67.7600
2023-05-02T11:21:32.320Z,52.9092
2023-05-02T11:22:34.193Z,47.8877
2023-05-02T11:23:36.102Z,53.9515
2023-05-02T11:24:38.039Z,59.9692
2023-05-02T11:25:39.961Z,65.0169
2023-05-02T11:26:41.883Z,68.9238
2023-05-02T11:27:43.788Z,60.4762
2023-05-02T11:28:45.720Z,49.8485
2023-05-02T11:29:47.616Z,54.2454
2023-05-02T11:30:49.528Z,60.1800
2023-05-02T11:31:51.473Z,65.2169
2023-05-02T11:32:53.431Z,69.3200
2023-05-02T11:33:55.265Z,65.1692
2023-05-02T11:34:57.278Z,49.5462
2023-05-02T11:35:59.096Z,48.8515
2023-05-02T11:37:01.013Z,55.2762
2023-05-02T11:38:02.929Z,61.0431
2023-05-02T11:39:04.837Z,65.8769
2023-05-02T11:40:06.752Z,68.4538
2023-05-02T11:41:08.685Z,55.8715
2023-05-02T11:42:10.586Z,47.7038
2023-05-02T11:43:12.525Z,53.1177
2023-05-02T11:44:14.400Z,59.2262
2023-05-02T11:45:16.327Z,64.3808
2023-05-02T11:46:18.281Z,68.5985
2023-05-02T11:47:20.150Z,62.9038
2023-05-02T11:48:22.088Z,49.3915
2023-05-02T11:49:23.974Z,51.8923
2023-05-02T11:50:25.878Z,58.1277
2023-05-02T11:51:27.793Z,63.4831
2023-05-02T11:52:29.698Z,67.9246
2023-05-02T11:53:31.642Z,67.5108
2023-05-02T11:54:33.555Z,52.3038
2023-05-02T11:55:35.479Z,49.1169
2023-05-02T11:56:37.382Z,55.3269
2023-05-02T11:57:39.291Z,61.0985
2023-05-02T11:58:41.226Z,65.9185
2023-05-02T11:59:43.127Z,69.2115
2023-05-02T12:00:45.018Z,58.4808
2023-05-02T12:01:46.936Z,48.2315
2023-05-02T12:02:48.976Z,52.9177
2023-05-02T12:03:50.785Z,59.0777
2023-05-02T12:04:52.684Z,64.2592
2023-05-02T12:05:54.686Z,68.5000
2023-05-02T12:06:56.557Z,64.7292
2023-05-02T12:07:58.441Z,50.6462
2023-05-02T12:09:00.350Z,52.3169
2023-05-02T12:10:02.272Z,58.4508
2023-05-02T12:11:04.199Z,63.7308
2023-05-02T12:12:06.089Z,68.0754
2023-05-02T12:13:10.025Z,68.1815
2023-05-02T12:14:09.902Z,52.7592
2023-05-02T12:15:11.826Z,47.5654
2023-05-02T12:16:13.848Z,53.6485
2023-05-02T12:17:15.658Z,59.5923
2023-05-02T12:18:18.081Z,64.6092
2023-05-02T12:19:19.468Z,68.5592
2023-05-02T12:20:21.392Z,60.4492
2023-05-02T12:21:23.308Z,46.5931
2023-05-02T12:22:25.225Z,48.5915
2023-05-02T12:23:27.131Z,55.1631
2023-05-02T12:24:29.066Z,60.8731
2023-05-02T12:25:30.975Z,65.6423
2023-05-02T12:26:33.027Z,67.0492
2023-05-02T12:27:34.797Z,53.0269
2023-05-02T12:28:36.698Z,47.1362
2023-05-02T12:29:38.679Z,53.1092
2023-05-02T12:30:40.524Z,59.2446
2023-05-02T12:31:42.444Z,64.3646
2023-05-02T12:32:44.419Z,68.4308
2023-05-02T12:33:46.282Z,61.8985
2023-05-02T12:34:48.196Z,58.1862
2023-05-02T12:35:50.116Z,63.0492
2023-05-02T12:36:52.017Z,67.5415
2023-05-02T12:37:53.949Z,71.1108
2023-05-02T12:38:55.997Z,72.9862
2023-05-02T12:39:57.765Z,59.6292
2023-05-02T12:40:59.688Z,45.6831
2023-05-02T12:42:01.602Z,47.7962
2023-05-02T12:43:03.491Z,54.6592
2023-05-02T12:44:05.480Z,60.5562
2023-05-02T12:45:07.302Z,65.4485
2023-05-02T12:46:09.220Z,67.1954
2023-05-02T12:47:11.173Z,53.7962
2023-05-02T12:48:13.111Z,49.9500
2023-05-02T12:49:14.966Z,55.8677
2023-05-02T12:50:16.933Z,61.4892
2023-05-02T12:51:18.796Z,66.2185
2023-05-02T12:52:20.714Z,69.4015
2023-05-02T12:53:22.628Z,58.5331
2023-05-02T12:54:24.542Z,46.8400
2023-05-02T12:55:26.675Z,50.8569
2023-05-02T12:56:28.373Z,57.2131
2023-05-02T12:57:30.338Z,62.6054
2023-05-02T12:58:32.181Z,67.0885
2023-05-02T12:59:34.112Z,65.6362
2023-05-02T13:00:36.088Z,50.9262
2023-05-02T13:01:38.066Z,50.2123
2023-05-02T13:02:39.839Z,56.5000
2023-05-02T13:03:41.878Z,62.0415
2023-05-02T13:04:44.181Z,66.6623
2023-05-02T13:05:45.591Z,68.7608
2023-05-02T13:06:47.490Z,55.8362
2023-05-02T13:07:49.420Z,50.7969
2023-05-02T13:08:51.312Z,56.5369
2023-05-02T13:09:53.221Z,62.0323
2023-05-02T13:10:55.149Z,66.6338
2023-05-02T13:11:57.096Z,69.8785
2023-05-02T13:12:58.976Z,59.7346
2023-05-02T13:14:00.878Z,47.1477
2023-05-02T13:15:02.821Z,50.6754
2023-05-02T13:16:04.720Z,57.1254
2023-05-02T13:17:06.745Z,62.5977
2023-05-02T13:18:08.619Z,67.1200
2023-05-02T13:19:10.454Z,66.3138
2023-05-02T13:20:12.359Z,52.5377
2023-05-02T13:21:14.284Z,52.9023
2023-05-02T13:22:16.176Z,58.8777
2023-05-02T13:23:18.122Z,64.0454
2023-05-02T13:24:20.060Z,68.2746
2023-05-02T13:25:21.901Z,69.0869
2023-05-02T13:26:23.827Z,54.4177
2023-05-02T13:27:25.748Z,48.8677
2023-05-02T13:28:27.683Z,54.8015
2023-05-02T13:29:29.559Z,60.5731
2023-05-02T13:30:31.556Z,65.4062
2023-05-02T13:31:33.548Z,69.0792
2023-05-02T13:32:35.395Z,60.2900
2023-05-02T13:33:37.287Z,48.0169
2023-05-02T13:34:39.221Z,51.7746
2023-05-02T13:35:41.100Z,58.1085
2023-05-02T13:36:43.039Z,63.3938
2023-05-02T13:37:44.926Z,67.7185
2023-05-02T13:38:46.840Z,66.1454
2023-05-02T13:39:48.761Z,54.8377
2023-05-02T13:40:50.665Z,57.7977
2023-05-02T13:41:52.585Z,63.1031
2023-05-02T13:42:54.509Z,67.5323
2023-05-02T13:43:56.418Z,71.0254
2023-05-02T13:44:58.383Z,67.6046
2023-05-02T13:46:00.330Z,51.0000
2023-05-02T13:47:02.162Z,48.6208
2023-05-02T13:48:04.189Z,55.0062
2023-05-02T13:49:06.009Z,60.7577
2023-05-02T13:50:07.936Z,65.5677
2023-05-02T13:51:09.827Z,68.6946
2023-05-02T13:52:11.733Z,57.5085
2023-05-02T13:53:13.677Z,47.0669
2023-05-02T13:54:15.550Z,51.7515
2023-05-02T13:55:17.472Z,57.9577
2023-05-02T13:56:19.415Z,63.2123
2023-05-02T13:57:21.274Z,67.5369
2023-05-02T13:58:23.202Z,64.4454
2023-05-02T13:59:25.152Z,50.6385
2023-05-02T14:00:27.261Z,52.2515
2023-05-02T14:01:28.990Z,58.3554
2023-05-02T14:02:30.963Z,63.5569
2023-05-02T14:03:32.893Z,67.8331
2023-05-02T14:04:34.677Z,67.9323
2023-05-02T14:05:36.633Z,53.2700
2023-05-02T14:06:38.669Z,50.7200
2023-05-02T14:07:40.404Z,56.8146
2023-05-02T14:08:42.328Z,62.2554
2023-05-02T14:09:44.233Z,66.7831
2023-05-02T14:10:46.171Z,69.3423
2023-05-02T14:11:48.053Z,57.1700
2023-05-02T14:12:49.963Z,47.0377
2023-05-02T14:13:51.877Z,51.8762
2023-05-02T14:14:53.832Z,58.0654
2023-05-02T14:15:55.735Z,63.2615
2023-05-02T14:16:57.609Z,67.5831
2023-05-02T14:17:59.565Z,64.1385
2023-05-02T14:19:01.431Z,53.6169
2023-05-02T14:20:03.615Z,57.4646
2023-05-02T14:21:05.260Z,62.8615
2023-05-02T14:22:07.165Z,67.2838
2023-05-02T14:23:09.059Z,70.7769
2023-05-02T14:24:11.029Z,65.9554
2023-05-02T14:25:12.884Z,50.1546
2023-05-02T14:26:14.805Z,50.0577
2023-05-02T14:27:16.719Z,56.4423
2023-05-02T14:28:18.618Z,62.0069
2023-05-02T14:29:20.540Z,66.5977
2023-05-02T14:30:22.444Z,68.4831
2023-05-02T14:31:24.423Z,55.8500
2023-05-02T14:32:26.299Z,52.9546
2023-05-02T14:33:28.196Z,58.7262
2023-05-02T14:34:30.114Z,63.8854
2023-05-02T14:35:32.033Z,68.0877
2023-05-02T14:36:33.933Z,70.2654
2023-05-02T14:37:35.847Z,57.5108
2023-05-02T14:38:37.800Z,48.2092
2023-05-02T14:39:39.669Z,53.3923
2023-05-02T14:40:41.601Z,59.5162
2023-05-02T14:41:43.495Z,64.5392
2023-05-02T14:42:45.401Z,68.5946
2023-05-02T14:43:47.307Z,63.4369
2023-05-02T14:44:49.276Z,51.2815
2023-05-02T14:45:51.157Z,54.6692
2023-05-02T14:46:53.123Z,60.4915
2023-05-02T14:47:54.979Z,65.3362
2023-05-02T14:48:56.870Z,69.1992
2023-05-02T14:49:58.806Z,66.4031
2023-05-02T14:51:00.669Z,50.9446
2023-05-02T14:52:02.589Z,50.2538
2023-05-02T14:53:04.506Z,56.6877
2023-05-02T14:54:06.471Z,62.2223
2023-05-02T14:55:08.327Z,66.7800
2023-05-02T14:56:10.230Z,68.8354
2023-05-02T14:57:12.142Z,55.8900
2023-05-02T14:58:14.059Z,50.4200
2023-05-02T14:59:16.086Z,56.1685
2023-05-02T15:00:17.878Z,61.7562
2023-05-02T15:01:19.896Z,66.3823
2023-05-02T15:02:21.839Z,69.6631
2023-05-02T15:03:23.785Z,59.9185
2023-05-02T15:04:25.758Z,48.5254
2023-05-02T15:05:27.428Z,52.7508
2023-05-02T15:06:29.414Z,58.8808
2023-05-02T15:07:31.302Z,63.9462
2023-05-02T15:08:33.184Z,68.0846
2023-05-02T15:09:35.067Z,65.2723
2023-05-02T15:10:37.002Z,50.6292
2023-05-02T15:11:38.896Z,51.2115
2023-05-02T15:12:40.847Z,57.4092
2023-05-02T15:13:42.733Z,62.7008
2023-05-02T15:14:44.647Z,67.0762
2023-05-02T15:15:46.567Z,68.2485
2023-05-02T15:16:48.499Z,53.9031
2023-05-02T15:17:50.406Z,45.1446
2023-05-02T15:18:52.311Z,50.5877
2023-05-02T15:19:55.350Z,56.9700
2023-05-02T15:20:56.139Z,62.3346
2023-05-02T15:21:58.060Z,66.6877
2023-05-02T15:22:59.943Z,63.1731
2023-05-02T15:24:03.630Z,50.8558
2023-05-02T15:25:05.310Z,53.7700
2023-05-02T15:26:05.689Z,59.7408
2023-05-02T15:27:07.623Z,64.6392
2023-05-02T15:28:09.512Z,68.5977
2023-05-02T15:29:11.426Z,66.8954
2023-05-02T15:30:13.349Z,52.5754
2023-05-02T15:31:15.235Z,52.9338
2023-05-02T15:32:17.259Z,58.9692
2023-05-02T15:33:19.059Z,64.1031
2023-05-02T15:34:20.970Z,68.2731
2023-05-02T15:35:22.886Z,68.9646
2023-05-02T15:36:24.813Z,54.1346
2023-05-02T15:37:26.720Z,48.1369
2023-05-02T15:38:28.638Z,54.1115
2023-05-02T15:39:30.522Z,60.0485
2023-05-02T15:40:32.463Z,64.9438
2023-05-02T15:41:34.353Z,68.7031
2023-05-02T15:42:36.805Z,60.6638
2023-05-02T15:43:38.239Z,50.2208
2023-05-02T15:44:40.092Z,54.6723
2023-05-02T15:45:42.025Z,60.4354
2023-05-02T15:46:43.942Z,65.1908
2023-05-02T15:47:45.856Z,69.0154
2023-05-02T15:48:47.743Z,64.3608
2023-05-02T15:49:49.677Z,48.8423
2023-05-02T15:50:51.561Z,48.3469
2023-05-02T15:51:53.495Z,54.9954
2023-05-02T15:52:55.387Z,60.7869
2023-05-02T15:53:57.315Z,65.5308
2023-05-02T15:54:59.221Z,68.0915
2023-05-02T15:56:01.143Z,56.5838
2023-05-02T15:57:03.035Z,53.7477
2023-05-02T15:58:04.957Z,59.4500
2023-05-02T15:59:06.877Z,64.5085
2023-05-02T16:00:08.773Z,68.5269
2023-05-02T16:01:10.738Z,70.5815
2023-05-02T16:02:12.597Z,57.8146
2023-05-02T16:03:14.580Z,51.0777
2023-05-02T16:04:16.505Z,56.6277
2023-05-02T16:05:18.340Z,62.1854
2023-05-02T16:06:20.263Z,66.7585
2023-05-02T16:07:22.199Z,70.0938
2023-05-02T16:08:24.071Z,61.2023
2023-05-02T16:09:25.981Z,47.1592
2023-05-02T16:10:27.894Z,49.3131
2023-05-02T16:11:29.829Z,55.8577
2023-05-02T16:12:31.738Z,61.4662
2023-05-02T16:13:33.657Z,66.0923
2023-05-02T16:14:35.557Z,66.9400
2023-05-02T16:15:37.473Z,52.7531
2023-05-02T16:16:39.401Z,48.8446
2023-05-02T16:17:41.335Z,54.9100
2023-05-02T16:18:43.200Z,60.6085
2023-05-02T16:19:45.115Z,65.3169
2023-05-02T16:20:47.017Z,68.6285
2023-05-02T16:21:48.947Z,58.7108
2023-05-02T16:22:50.829Z,51.6838
2023-05-02T16:23:52.764Z,57.0715
2023-05-02T16:24:54.669Z,62.5838
2023-05-02T16:25:56.592Z,67.0146
2023-05-02T16:26:58.497Z,70.3277
2023-05-02T16:28:00.421Z,61.9892
2023-05-02T16:29:02.314Z,54.5238
2023-05-02T16:30:04.616Z,59.4708
2023-05-02T16:31:06.177Z,64.5515
2023-05-02T16:32:08.053Z,68.6208
2023-05-02T16:33:10.021Z,71.5423
2023-05-02T16:34:11.891Z,62.2392
2023-05-02T16:35:13.789Z,47.6877
2023-05-02T16:36:15.726Z,49.6438
2023-05-02T16:37:17.622Z,56.2262
2023-05-02T16:38:19.540Z,61.8369
2023-05-02T16:39:21.441Z,66.4385
2023-05-02T16:40:23.367Z,67.3715
2023-05-02T16:41:25.276Z,55.9362
2023-05-02T16:42:27.194Z,57.1562
2023-05-02T16:43:29.111Z,62.3777
2023-05-02T16:44:30.996Z,66.7431
2023-05-02T16:45:32.928Z,70.2123
2023-05-02T16:46:34.853Z,69.1146
2023-05-02T16:47:36.757Z,52.7446
2023-05-02T16:48:38.670Z,45.0131
2023-05-02T16:49:40.585Z,50.8815
2023-05-02T16:50:42.509Z,57.3215
2023-05-02T16:51:44.399Z,62.6585
2023-05-02T16:52:46.318Z,67.0669
2023-05-02T16:53:48.219Z,62.9638
2023-05-02T16:54:50.164Z,55.3815
2023-05-02T16:55:52.044Z,59.9131
2023-05-02T16:56:53.977Z,64.7823
2023-05-02T16:57:55.868Z,68.6838
2023-05-02T16:58:57.799Z,71.7300
2023-05-02T16:59:59.805Z,63.2777
2023-05-02T17:01:01.674Z,47.4754
2023-05-02T17:02:03.578Z,47.4192
2023-05-02T17:03:05.793Z,54.1615
2023-05-02T17:04:07.369Z,60.0762
2023-05-02T17:05:09.277Z,64.9192
2023-05-02T17:06:11.196Z,67.6100
2023-05-02T17:07:13.110Z,57.2692
2023-05-02T17:08:15.011Z,56.7185
2023-05-02T17:09:16.907Z,62.0500
2023-05-02T17:10:18.834Z,66.5208
2023-05-02T17:11:20.738Z,70.0869
2023-05-02T17:12:22.718Z,70.4985
2023-05-02T17:13:24.566Z,55.2500
2023-05-02T17:14:26.479Z,47.2508
2023-05-02T17:15:28.378Z,52.8769
2023-05-02T17:16:30.311Z,58.9777
2023-05-02T17:17:32.216Z,64.0008
2023-05-02T17:18:34.130Z,68.1000
2023-05-02T17:19:36.040Z,62.3323
2023-05-02T17:20:37.935Z,50.7015
2023-05-02T17:21:39.845Z,54.3885
2023-05-02T17:22:41.786Z,60.2254
2023-05-02T17:23:43.663Z,64.9992
2023-05-02T17:24:45.588Z,68.8692
2023-05-02T17:25:47.489Z,65.7662
2023-05-02T17:26:49.414Z,50.2700
2023-05-02T17:27:51.340Z,49.3515
2023-05-02T17:28:53.236Z,55.6792
2023-05-02T17:29:55.146Z,61.2523
2023-05-02T17:30:57.099Z,65.8323
2023-05-02T17:31:58.975Z,68.2192
2023-05-02T17:33:00.920Z,55.6985
2023-05-02T17:34:02.851Z,47.8600
2023-05-02T17:35:04.779Z,53.3677
2023-05-02T17:36:06.689Z,59.2977
2023-05-02T17:37:08.617Z,64.1846
2023-05-02T17:38:10.510Z,68.1269
2023-05-02T17:39:12.412Z,61.9592
2023-05-02T17:40:14.325Z,49.6054
2023-05-02T17:41:16.262Z,53.0008
2023-05-02T17:42:18.160Z,59.0462
2023-05-02T17:43:20.093Z,64.0723
2023-05-02T17:44:21.978Z,68.0862
2023-05-02T17:45:23.891Z,66.0962
2023-05-02T17:46:25.881Z,51.2938
2023-05-02T17:47:27.723Z,50.7185
2023-05-02T17:48:29.677Z,56.8123
2023-05-02T17:49:31.548Z,62.1315
2023-05-02T17:50:33.453Z,66.5146
2023-05-02T17:51:35.373Z,68.2354